createdAt,value
2017-04-12T00:00:25.803Z,1017.69
2017-04-12T00:01:35.406Z,1017.74
2017-04-12T00:02:45.304Z,1017.74
2017-04-12T00:03:55.235Z,1017.75
2017-04-12T00:05:04.956Z,1017.77
2017-04-12T00:06:14.868Z,1017.78
2017-04-12T00:07:24.787Z,1017.81
2017-04-12T00:08:35.009Z,1017.83
2017-04-12T00:09:45.245Z,1017.82
2017-04-12T00:10:55.260Z,1017.82
2017-04-12T00:12:05.488Z,1017.84
2017-04-12T00:13:15.399Z,1017.83
2017-04-12T00:14:25.308Z,1017.79
2017-04-12T00:15:35.221Z,1017.74
2017-04-12T00:16:45.289Z,1017.8
2017-04-12T00:17:54.614Z,1017.76
2017-04-12T00:19:04.517Z,1017.72
2017-04-12T00:20:14.796Z,1017.65
2017-04-12T00:21:24.699Z,1017.67
2017-04-12T00:22:34.770Z,1017.68
2017-04-12T00:23:44.691Z,1017.64
2017-04-12T00:24:54.620Z,1017.62
2017-04-12T00:26:04.530Z,1017.62
2017-04-12T00:27:14.446Z,1017.58
2017-04-12T00:28:24.808Z,1017.55
2017-04-12T00:29:35.031Z,1017.58
2017-04-12T00:30:44.953Z,1017.58
2017-04-12T00:31:54.889Z,1017.62
2017-04-12T00:33:05.113Z,1017.61
2017-04-12T00:34:15.184Z,1017.6
2017-04-12T00:35:25.134Z,1017.57
2017-04-12T00:36:35.359Z,1017.6
2017-04-12T00:37:44.963Z,1017.58
2017-04-12T00:38:54.884Z,1017.58
2017-04-12T00:40:04.960Z,1017.56
2017-04-12T00:41:14.873Z,1017.51
2017-04-12T00:42:24.481Z,1017.45
2017-04-12T00:43:34.083Z,1017.42
2017-04-12T00:44:44.028Z,1017.39
2017-04-12T00:45:54.103Z,1017.4
2017-04-12T00:47:04.021Z,1017.39
2017-04-12T00:48:13.618Z,1017.37
2017-04-12T00:49:23.532Z,1017.38
2017-04-12T00:50:33.190Z,1017.32
2017-04-12T00:51:42.947Z,1017.35
2017-04-12T00:52:53.168Z,1017.34
2017-04-12T00:54:02.782Z,1017.32
2017-04-12T00:55:12.392Z,1017.34
2017-04-12T00:56:22.295Z,1017.31
2017-04-12T00:57:32.663Z,1017.25
2017-04-12T00:58:42.885Z,1017.22
2017-04-12T00:59:52.813Z,1017.2
2017-04-12T01:01:01.800Z,1017.17
2017-04-12T01:02:11.406Z,1017.15
2017-04-12T01:03:21.474Z,1017.12
2017-04-12T01:04:31.684Z,1017.17
2017-04-12T01:05:41.909Z,1017.16
2017-04-12T01:06:52.125Z,1017.12
2017-04-12T01:08:02.032Z,1017.16
2017-04-12T01:09:11.485Z,1017.14
2017-04-12T01:10:21.390Z,1017.17
2017-04-12T01:11:31.609Z,1017.16
2017-04-12T01:12:40.911Z,1017.18
2017-04-12T01:13:50.837Z,1017.18
2017-04-12T01:15:01.195Z,1017.2
2017-04-12T01:16:10.790Z,1017.18
2017-04-12T01:17:20.712Z,1017.14
2017-04-12T01:18:30.614Z,1017.12
2017-04-12T01:19:40.524Z,1017.15
2017-04-12T01:20:50.893Z,1017.14
2017-04-12T01:22:00.797Z,1017.11
2017-04-12T01:23:10.394Z,1017.11
2017-04-12T01:24:20.298Z,1017.08
2017-04-12T01:25:30.517Z,1017.09
2017-04-12T01:26:40.271Z,1017.11
2017-04-12T01:27:49.899Z,1017.12
2017-04-12T01:29:00.116Z,1017.11
2017-04-12T01:30:10.352Z,1017.1
2017-04-12T01:31:19.965Z,1017.09
2017-04-12T01:32:29.413Z,1017.05
2017-04-12T01:33:38.394Z,1017.02
2017-04-12T01:34:48.000Z,1017
2017-04-12T01:35:58.212Z,1016.94
2017-04-12T01:37:07.877Z,1016.99
2017-04-12T01:38:18.234Z,1016.97
2017-04-12T01:39:27.842Z,1016.89
2017-04-12T01:40:38.043Z,1016.91
2017-04-12T01:41:47.672Z,1016.86
2017-04-12T01:42:57.270Z,1016.83
2017-04-12T01:44:07.648Z,1016.78
2017-04-12T01:45:17.571Z,1016.74
2017-04-12T01:46:27.498Z,1016.79
2017-04-12T01:47:37.101Z,1016.75
2017-04-12T01:48:46.699Z,1016.72
2017-04-12T01:49:56.766Z,1016.72
2017-04-12T01:51:06.078Z,1016.69
2017-04-12T01:52:15.994Z,1016.65
2017-04-12T01:53:25.927Z,1016.67
2017-04-12T01:54:35.876Z,1016.65
2017-04-12T01:55:45.671Z,1016.68
2017-04-12T01:56:55.876Z,1016.7
2017-04-12T01:58:05.793Z,1016.62
2017-04-12T01:59:15.699Z,1016.62
2017-04-12T02:00:24.995Z,1016.64
2017-04-12T02:01:34.431Z,1016.6
2017-04-12T02:02:44.342Z,1016.55
2017-04-12T02:03:53.981Z,1016.59
2017-04-12T02:05:04.195Z,1016.53
2017-04-12T02:06:13.498Z,1016.5
2017-04-12T02:07:23.523Z,1016.49
2017-04-12T02:08:33.755Z,1016.47
2017-04-12T02:09:43.379Z,1016.42
2017-04-12T02:10:53.309Z,1016.46
2017-04-12T02:12:02.608Z,1016.45
2017-04-12T02:13:12.627Z,1016.43
2017-04-12T02:14:22.538Z,1016.44
2017-04-12T02:15:32.147Z,1016.45
2017-04-12T02:16:41.767Z,1016.43
2017-04-12T02:17:51.682Z,1016.44
2017-04-12T02:19:01.446Z,1016.43
2017-04-12T02:20:11.354Z,1016.39
2017-04-12T02:21:21.571Z,1016.38
2017-04-12T02:22:31.512Z,1016.35
2017-04-12T02:23:41.732Z,1016.32
2017-04-12T02:24:51.750Z,1016.35
2017-04-12T02:26:01.959Z,1016.34
2017-04-12T02:27:12.203Z,1016.31
2017-04-12T02:28:22.115Z,1016.35
2017-04-12T02:29:31.402Z,1016.29
2017-04-12T02:30:41.413Z,1016.32
2017-04-12T02:31:51.622Z,1016.28
2017-04-12T02:33:01.227Z,1016.28
2017-04-12T02:34:11.437Z,1016.3
2017-04-12T02:35:21.662Z,1016.28
2017-04-12T02:36:31.731Z,1016.26
2017-04-12T02:37:41.635Z,1016.26
2017-04-12T02:38:51.862Z,1016.3
2017-04-12T02:40:01.159Z,1016.29
2017-04-12T02:41:11.067Z,1016.27
2017-04-12T02:42:20.833Z,1016.26
2017-04-12T02:43:30.742Z,1016.23
2017-04-12T02:44:40.980Z,1016.23
2017-04-12T02:45:51.198Z,1016.19
2017-04-12T02:47:01.161Z,1016.19
2017-04-12T02:48:11.239Z,1016.17
2017-04-12T02:49:21.459Z,1016.12
2017-04-12T02:50:31.674Z,1016.08
2017-04-12T02:51:41.897Z,1016.08
2017-04-12T02:52:51.506Z,1016.08
2017-04-12T02:54:01.267Z,1016.09
2017-04-12T02:55:11.212Z,1016.03
2017-04-12T02:56:21.450Z,1016.03
2017-04-12T02:57:31.678Z,1016.01
2017-04-12T02:58:41.333Z,1016.01
2017-04-12T02:59:51.404Z,1016
2017-04-12T03:01:00.759Z,1015.95
2017-04-12T03:02:10.975Z,1015.93
2017-04-12T03:03:21.193Z,1015.86
2017-04-12T03:04:31.129Z,1015.82
2017-04-12T03:05:40.522Z,1015.8
2017-04-12T03:06:50.126Z,1015.83
2017-04-12T03:08:00.046Z,1015.84
2017-04-12T03:09:10.276Z,1015.77
2017-04-12T03:10:20.488Z,1015.74
2017-04-12T03:11:30.740Z,1015.64
2017-04-12T03:12:40.656Z,1015.64
2017-04-12T03:13:50.886Z,1015.65
2017-04-12T03:15:00.808Z,1015.68
2017-04-12T03:16:10.106Z,1015.71
2017-04-12T03:17:20.574Z,1015.71
2017-04-12T03:18:30.481Z,1015.69
2017-04-12T03:19:40.411Z,1015.68
2017-04-12T03:20:50.634Z,1015.72
2017-04-12T03:22:00.540Z,1015.66
2017-04-12T03:23:10.861Z,1015.64
2017-04-12T03:24:20.778Z,1015.63
2017-04-12T03:25:30.394Z,1015.64
2017-04-12T03:26:39.706Z,1015.61
2017-04-12T03:27:49.311Z,1015.6
2017-04-12T03:28:59.537Z,1015.55
2017-04-12T03:30:09.440Z,1015.51
2017-04-12T03:31:19.651Z,1015.53
2017-04-12T03:32:29.554Z,1015.53
2017-04-12T03:33:39.464Z,1015.57
2017-04-12T03:34:49.331Z,1015.53
2017-04-12T03:35:59.544Z,1015.55
2017-04-12T03:37:09.164Z,1015.5
2017-04-12T03:38:19.082Z,1015.5
2017-04-12T03:39:28.993Z,1015.43
2017-04-12T03:40:39.468Z,1015.46
2017-04-12T03:41:49.704Z,1015.42
2017-04-12T03:42:59.925Z,1015.36
2017-04-12T03:44:09.848Z,1015.39
2017-04-12T03:45:19.781Z,1015.39
2017-04-12T03:46:29.533Z,1015.35
2017-04-12T03:47:39.745Z,1015.35
2017-04-12T03:48:49.965Z,1015.32
2017-04-12T03:50:00.182Z,1015.31
2017-04-12T03:51:09.772Z,1015.35
2017-04-12T03:52:20.238Z,1015.32
2017-04-12T03:53:30.154Z,1015.3
2017-04-12T03:54:40.377Z,1015.31
2017-04-12T03:55:50.283Z,1015.33
2017-04-12T03:57:00.185Z,1015.3
2017-04-12T03:58:10.429Z,1015.32
2017-04-12T03:59:20.362Z,1015.31
2017-04-12T04:00:30.576Z,1015.28
2017-04-12T04:01:40.180Z,1015.32
2017-04-12T04:02:49.780Z,1015.3
2017-04-12T04:04:00.243Z,1015.27
2017-04-12T04:05:10.456Z,1015.26
2017-04-12T04:06:20.677Z,1015.29
2017-04-12T04:07:30.271Z,1015.31
2017-04-12T04:08:40.177Z,1015.33
2017-04-12T04:09:50.801Z,1015.35
2017-04-12T04:11:00.748Z,1015.32
2017-04-12T04:12:10.657Z,1015.27
2017-04-12T04:13:20.891Z,1015.27
2017-04-12T04:14:31.117Z,1015.3
2017-04-12T04:15:41.598Z,1015.28
2017-04-12T04:16:51.814Z,1015.27
2017-04-12T04:18:01.740Z,1015.27
2017-04-12T04:19:11.658Z,1015.28
2017-04-12T04:20:21.871Z,1015.25
2017-04-12T04:21:32.136Z,1015.25
2017-04-12T04:22:41.757Z,1015.25
2017-04-12T04:23:52.024Z,1015.26
2017-04-12T04:25:01.328Z,1015.27
2017-04-12T04:26:11.545Z,1015.26
2017-04-12T04:27:21.916Z,1015.28
2017-04-12T04:28:31.839Z,1015.24
2017-04-12T04:29:42.075Z,1015.22
2017-04-12T04:30:51.694Z,1015.2
2017-04-12T04:32:01.296Z,1015.18
2017-04-12T04:33:11.476Z,1015.21
2017-04-12T04:34:21.421Z,1015.17
2017-04-12T04:35:31.644Z,1015.14
2017-04-12T04:36:41.253Z,1015.14
2017-04-12T04:37:50.559Z,1015.14
2017-04-12T04:39:00.821Z,1015.09
2017-04-12T04:40:10.736Z,1015.09
2017-04-12T04:41:20.034Z,1015.07
2017-04-12T04:42:29.628Z,1015.04
2017-04-12T04:43:39.543Z,1015.16
2017-04-12T04:44:48.694Z,1015.13
2017-04-12T04:45:58.926Z,1015.09
2017-04-12T04:47:08.837Z,1015.08
2017-04-12T04:48:18.447Z,1015.05
2017-04-12T04:49:28.674Z,1015
2017-04-12T04:50:39.048Z,1015.02
2017-04-12T04:51:49.318Z,1015.04
2017-04-12T04:52:59.233Z,1015.02
2017-04-12T04:54:09.467Z,1015
2017-04-12T04:55:19.418Z,1015.01
2017-04-12T04:56:29.432Z,1014.95
2017-04-12T04:57:39.076Z,1014.96
2017-04-12T04:58:49.316Z,1014.92
2017-04-12T04:59:59.224Z,1014.93
2017-04-12T05:01:08.844Z,1014.92
2017-04-12T05:02:18.759Z,1015
2017-04-12T05:03:28.680Z,1014.97
2017-04-12T05:04:38.596Z,1014.94
2017-04-12T05:05:48.521Z,1014.93
2017-04-12T05:06:58.125Z,1014.98
2017-04-12T05:08:08.636Z,1014.98
2017-04-12T05:09:18.308Z,1014.99
2017-04-12T05:10:28.300Z,1014.98
2017-04-12T05:11:38.251Z,1014.99
2017-04-12T05:12:48.521Z,1014.96
2017-04-12T05:13:58.555Z,1014.96
2017-04-12T05:15:08.473Z,1014.97
2017-04-12T05:16:18.404Z,1014.92
2017-04-12T05:17:28.334Z,1014.93
2017-04-12T05:18:38.276Z,1014.95
2017-04-12T05:19:48.298Z,1014.95
2017-04-12T05:20:57.907Z,1014.91
2017-04-12T05:22:07.531Z,1014.89
2017-04-12T05:23:17.214Z,1014.84
2017-04-12T05:24:27.134Z,1014.79
2017-04-12T05:25:37.443Z,1014.82
2017-04-12T05:26:47.676Z,1014.78
2017-04-12T05:27:57.282Z,1014.79
2017-04-12T05:29:07.513Z,1014.77
2017-04-12T05:30:16.832Z,1014.75
2017-04-12T05:31:26.307Z,1014.75
2017-04-12T05:32:36.232Z,1014.77
2017-04-12T05:33:46.829Z,1014.75
2017-04-12T05:34:56.745Z,1014.77
2017-04-12T05:36:06.366Z,1014.78
2017-04-12T05:37:16.955Z,1014.77
2017-04-12T05:38:26.587Z,1014.8
2017-04-12T05:39:36.216Z,1014.74
2017-04-12T05:40:46.440Z,1014.79
2017-04-12T05:41:56.343Z,1014.76
2017-04-12T05:43:05.744Z,1014.79
2017-04-12T05:44:15.340Z,1014.76
2017-04-12T05:45:24.664Z,1014.76
2017-04-12T05:46:34.889Z,1014.78
2017-04-12T05:47:45.378Z,1014.74
2017-04-12T05:48:55.164Z,1014.74
2017-04-12T05:50:05.069Z,1014.68
2017-04-12T05:51:15.309Z,1014.67
2017-04-12T05:52:25.537Z,1014.66
2017-04-12T05:53:35.174Z,1014.65
2017-04-12T05:54:45.198Z,1014.59
2017-04-12T05:55:55.112Z,1014.57
2017-04-12T05:57:04.718Z,1014.56
2017-04-12T05:58:14.345Z,1014.6
2017-04-12T05:59:24.293Z,1014.6
2017-04-12T06:00:34.546Z,1014.6
2017-04-12T06:01:44.720Z,1014.61
2017-04-12T06:02:54.641Z,1014.59
2017-04-12T06:04:04.566Z,1014.59
2017-04-12T06:05:14.201Z,1014.6
2017-04-12T06:06:23.674Z,1014.59
2017-04-12T06:07:33.003Z,1014.59
2017-04-12T06:08:43.281Z,1014.59
2017-04-12T06:09:53.544Z,1014.54
2017-04-12T06:11:03.163Z,1014.54
2017-04-12T06:12:13.529Z,1014.56
2017-04-12T06:13:23.201Z,1014.5
2017-04-12T06:14:33.166Z,1014.52
2017-04-12T06:15:43.506Z,1014.52
2017-04-12T06:16:53.141Z,1014.53
2017-04-12T06:18:03.013Z,1014.56
2017-04-12T06:19:13.238Z,1014.57
2017-04-12T06:20:23.156Z,1014.57
2017-04-12T06:21:32.516Z,1014.54
2017-04-12T06:22:42.785Z,1014.53
2017-04-12T06:23:52.904Z,1014.5
2017-04-12T06:25:02.267Z,1014.47
2017-04-12T06:26:12.566Z,1014.48
2017-04-12T06:27:22.491Z,1014.48
2017-04-12T06:28:32.441Z,1014.45
2017-04-12T06:29:43.036Z,1014.44
2017-04-12T06:30:53.283Z,1014.44
2017-04-12T06:32:02.902Z,1014.39
2017-04-12T06:33:12.829Z,1014.48
2017-04-12T06:34:22.736Z,1014.46
2017-04-12T06:35:32.646Z,1014.45
2017-04-12T06:36:42.856Z,1014.45
2017-04-12T06:37:53.088Z,1014.44
2017-04-12T06:39:03.018Z,1014.42
2017-04-12T06:40:13.274Z,1014.45
2017-04-12T06:41:23.136Z,1014.43
2017-04-12T06:42:33.049Z,1014.43
2017-04-12T06:43:43.271Z,1014.42
2017-04-12T06:44:53.491Z,1014.35
2017-04-12T06:46:03.709Z,1014.38
2017-04-12T06:47:13.921Z,1014.38
2017-04-12T06:48:23.832Z,1014.47
2017-04-12T06:49:33.445Z,1014.45
2017-04-12T06:50:43.043Z,1014.45
2017-04-12T06:51:52.646Z,1014.48
2017-04-12T06:53:02.962Z,1014.49
2017-04-12T06:54:13.190Z,1014.5
2017-04-12T06:55:23.109Z,1014.44
2017-04-12T06:56:32.736Z,1014.42
2017-04-12T06:57:42.678Z,1014.45
2017-04-12T06:58:52.654Z,1014.33
2017-04-12T07:00:02.579Z,1014.38
2017-04-12T07:01:12.805Z,1014.35
2017-04-12T07:02:23.133Z,1014.39
2017-04-12T07:03:33.356Z,1014.35
2017-04-12T07:04:43.523Z,1014.36
2017-04-12T07:05:53.436Z,1014.31
2017-04-12T07:07:03.684Z,1014.31
2017-04-12T07:08:13.915Z,1014.35
2017-04-12T07:09:23.535Z,1014.33
2017-04-12T07:10:33.396Z,1014.33
2017-04-12T07:11:43.620Z,1014.32
2017-04-12T07:12:53.590Z,1014.29
2017-04-12T07:14:04.075Z,1014.31
2017-04-12T07:15:14.138Z,1014.29
2017-04-12T07:16:24.207Z,1014.27
2017-04-12T07:17:34.129Z,1014.25
2017-04-12T07:18:44.062Z,1014.23
2017-04-12T07:19:54.053Z,1014.25
2017-04-12T07:21:04.304Z,1014.25
2017-04-12T07:22:15.247Z,1014.24
2017-04-12T07:23:25.467Z,1014.22
2017-04-12T07:24:35.706Z,1014.2
2017-04-12T07:25:45.935Z,1014.16
2017-04-12T07:26:56.164Z,1014.18
2017-04-12T07:28:06.344Z,1014.21
2017-04-12T07:29:16.572Z,1014.13
2017-04-12T07:30:26.485Z,1014.17
2017-04-12T07:31:36.410Z,1014.1
2017-04-12T07:32:46.388Z,1014.08
2017-04-12T07:33:55.866Z,1014.12
2017-04-12T07:35:06.099Z,1014.05
2017-04-12T07:36:15.717Z,1014.03
2017-04-12T07:37:25.635Z,1014
2017-04-12T07:38:35.299Z,1014.02
2017-04-12T07:39:46.253Z,1014.04
2017-04-12T07:40:56.191Z,1014.01
2017-04-12T07:42:05.830Z,1013.97
2017-04-12T07:43:16.075Z,1013.93
2017-04-12T07:44:25.689Z,1013.93
2017-04-12T07:45:35.459Z,1013.95
2017-04-12T07:46:45.081Z,1013.9
2017-04-12T07:47:55.007Z,1013.91
2017-04-12T07:49:05.264Z,1013.9
2017-04-12T07:50:15.495Z,1013.87
2017-04-12T07:51:25.275Z,1013.83
2017-04-12T07:52:35.209Z,1013.83
2017-04-12T07:53:44.818Z,1013.84
2017-04-12T07:54:54.430Z,1013.82
2017-04-12T07:56:03.787Z,1013.87
2017-04-12T07:57:14.164Z,1013.82
2017-04-12T07:58:24.075Z,1013.83
2017-04-12T07:59:34.313Z,1013.85
2017-04-12T08:00:43.935Z,1013.85
2017-04-12T08:01:53.241Z,1013.87
2017-04-12T08:03:03.613Z,1013.88
2017-04-12T08:04:13.549Z,1013.89
2017-04-12T08:05:23.475Z,1013.83
2017-04-12T08:06:33.132Z,1013.89
2017-04-12T08:07:42.739Z,1013.84
2017-04-12T08:08:52.754Z,1013.92
2017-04-12T08:10:02.384Z,1013.87
2017-04-12T08:11:12.338Z,1013.82
2017-04-12T08:12:21.959Z,1013.83
2017-04-12T08:13:31.926Z,1013.82
2017-04-12T08:14:42.269Z,1013.79
2017-04-12T08:15:51.594Z,1013.82
2017-04-12T08:17:01.842Z,1013.81
2017-04-12T08:18:11.770Z,1013.79
2017-04-12T08:19:21.081Z,1013.8
2017-04-12T08:20:31.346Z,1013.82
2017-04-12T08:21:41.589Z,1013.84
2017-04-12T08:22:51.519Z,1013.83
2017-04-12T08:24:01.129Z,1013.8
2017-04-12T08:25:10.738Z,1013.74
2017-04-12T08:26:20.909Z,1013.81
2017-04-12T08:27:30.838Z,1013.81
2017-04-12T08:28:40.768Z,1013.8
2017-04-12T08:29:50.694Z,1013.77
2017-04-12T08:31:00.301Z,1013.74
2017-04-12T08:32:10.548Z,1013.69
2017-04-12T08:33:20.158Z,1013.67
2017-04-12T08:34:29.767Z,1013.65
2017-04-12T08:35:39.391Z,1013.61
2017-04-12T08:36:49.342Z,1013.64
2017-04-12T08:38:00.434Z,1013.61
2017-04-12T08:39:10.352Z,1013.56
2017-04-12T08:40:20.012Z,1013.54
2017-04-12T08:41:29.925Z,1013.53
2017-04-12T08:42:39.533Z,1013.44
2017-04-12T08:43:49.323Z,1013.44
2017-04-12T08:44:58.975Z,1013.43
2017-04-12T08:46:08.903Z,1013.45
2017-04-12T08:47:19.132Z,1013.5
2017-04-12T08:48:29.382Z,1013.53
2017-04-12T08:49:39.680Z,1013.53
2017-04-12T08:50:48.993Z,1013.52
2017-04-12T08:51:58.647Z,1013.51
2017-04-12T08:53:08.261Z,1013.51
2017-04-12T08:54:18.496Z,1013.52
2017-04-12T08:55:28.710Z,1013.4
2017-04-12T08:56:38.946Z,1013.41
2017-04-12T08:57:48.249Z,1013.38
2017-04-12T08:58:57.547Z,1013.39
2017-04-12T09:00:07.477Z,1013.39
2017-04-12T09:01:17.100Z,1013.39
2017-04-12T09:02:27.334Z,1013.36
2017-04-12T09:03:36.942Z,1013.34
2017-04-12T09:04:47.181Z,1013.36
2017-04-12T09:05:57.151Z,1013.36
2017-04-12T09:07:07.196Z,1013.35
2017-04-12T09:08:17.112Z,1013.37
2017-04-12T09:09:26.708Z,1013.34
2017-04-12T09:10:35.699Z,1013.43
2017-04-12T09:11:45.324Z,1013.38
2017-04-12T09:12:54.866Z,1013.28
2017-04-12T09:14:04.485Z,1013.32
2017-04-12T09:15:13.487Z,1013.32
2017-04-12T09:16:23.422Z,1013.37
2017-04-12T09:17:32.741Z,1013.39
2017-04-12T09:18:42.940Z,1013.34
2017-04-12T09:19:52.867Z,1013.37
2017-04-12T09:21:02.193Z,1013.27
2017-04-12T09:22:12.110Z,1013.35
2017-04-12T09:23:21.728Z,1013.24
2017-04-12T09:24:31.503Z,1013.19
2017-04-12T09:25:41.133Z,1013.2
2017-04-12T09:26:51.093Z,1013.15
2017-04-12T09:28:00.407Z,1013.07
2017-04-12T09:29:10.328Z,1013.09
2017-04-12T09:30:20.489Z,1013.08
2017-04-12T09:31:30.711Z,1012.99
2017-04-12T09:32:40.636Z,1013.09
2017-04-12T09:33:49.943Z,1013.01
2017-04-12T09:34:59.609Z,1013.05
2017-04-12T09:36:09.700Z,1012.98
2017-04-12T09:37:19.048Z,1012.96
2017-04-12T09:38:28.701Z,1012.96
2017-04-12T09:39:37.702Z,1012.96
2017-04-12T09:40:47.940Z,1012.95
2017-04-12T09:41:58.294Z,1012.91
2017-04-12T09:43:07.900Z,1012.92
2017-04-12T09:44:17.814Z,1012.9
2017-04-12T09:45:28.047Z,1012.9
2017-04-12T09:46:38.312Z,1012.92
2017-04-12T09:47:48.108Z,1012.95
2017-04-12T09:48:58.353Z,1012.92
2017-04-12T09:50:08.294Z,1012.94
2017-04-12T09:51:18.247Z,1012.86
2017-04-12T09:52:27.859Z,1012.88
2017-04-12T09:53:37.621Z,1012.86
2017-04-12T09:54:47.535Z,1012.85
2017-04-12T09:55:57.770Z,1012.83
2017-04-12T09:57:07.679Z,1012.81
2017-04-12T09:58:17.597Z,1012.79
2017-04-12T09:59:27.373Z,1012.87
2017-04-12T10:00:37.291Z,1012.74
2017-04-12T10:01:46.941Z,1012.75
2017-04-12T10:02:56.582Z,1012.73
2017-04-12T10:04:06.516Z,1012.74
2017-04-12T10:05:16.175Z,1012.71
2017-04-12T10:06:26.095Z,1012.71
2017-04-12T10:07:36.017Z,1012.69
2017-04-12T10:08:45.934Z,1012.69
2017-04-12T10:09:56.163Z,1012.65
2017-04-12T10:11:07.236Z,1012.61
2017-04-12T10:12:17.156Z,1012.69
2017-04-12T10:13:27.081Z,1012.65
2017-04-12T10:14:37.007Z,1012.65
2017-04-12T10:15:47.264Z,1012.68
2017-04-12T10:16:57.635Z,1012.69
2017-04-12T10:18:07.887Z,1012.7
2017-04-12T10:19:17.803Z,1012.69
2017-04-12T10:20:28.030Z,1012.66
2017-04-12T10:21:37.943Z,1012.64
2017-04-12T10:22:49.230Z,1012.63
2017-04-12T10:23:58.844Z,1012.59
2017-04-12T10:25:08.877Z,1012.63
2017-04-12T10:26:18.816Z,1012.6
2017-04-12T10:27:28.750Z,1012.58
2017-04-12T10:28:39.142Z,1012.61
2017-04-12T10:29:49.061Z,1012.54
2017-04-12T10:30:58.367Z,1012.54
2017-04-12T10:32:08.317Z,1012.59
2017-04-12T10:33:18.347Z,1012.54
2017-04-12T10:34:28.791Z,1012.5
2017-04-12T10:35:38.732Z,1012.48
2017-04-12T10:36:48.699Z,1012.37
2017-04-12T10:37:58.617Z,1012.42
2017-04-12T10:39:08.551Z,1012.38
2017-04-12T10:40:18.814Z,1012.34
2017-04-12T10:41:28.461Z,1012.29
2017-04-12T10:42:38.707Z,1012.26
2017-04-12T10:43:48.637Z,1012.28
2017-04-12T10:44:58.257Z,1012.31
2017-04-12T10:46:08.172Z,1012.29
2017-04-12T10:47:18.096Z,1012.27
2017-04-12T10:48:27.416Z,1012.27
2017-04-12T10:49:37.336Z,1012.31
2017-04-12T10:50:47.254Z,1012.32
2017-04-12T10:51:57.779Z,1012.33
2017-04-12T10:53:07.696Z,1012.29
2017-04-12T10:54:17.607Z,1012.28
2017-04-12T10:55:27.217Z,1012.27
2017-04-12T10:56:37.158Z,1012.23
2017-04-12T10:57:47.267Z,1012.24
2017-04-12T10:58:57.190Z,1012.22
2017-04-12T11:00:06.816Z,1012.22
2017-04-12T11:01:16.767Z,1012.11
2017-04-12T11:02:26.721Z,1012.11
2017-04-12T11:03:37.016Z,1012.14
2017-04-12T11:04:46.928Z,1012.12
2017-04-12T11:05:56.846Z,1012.09
2017-04-12T11:07:07.066Z,1012.01
2017-04-12T11:08:17.277Z,1012.04
2017-04-12T11:09:27.451Z,1012.08
2017-04-12T11:10:37.353Z,1012.09
2017-04-12T11:11:47.260Z,1012.09
2017-04-12T11:12:57.474Z,1012.09
2017-04-12T11:14:07.388Z,1012.06
2017-04-12T11:15:17.149Z,1012.04
2017-04-12T11:16:26.461Z,1012.02
2017-04-12T11:17:36.370Z,1011.98
2017-04-12T11:18:45.696Z,1012.05
2017-04-12T11:19:55.910Z,1012.04
2017-04-12T11:21:05.456Z,1011.95
2017-04-12T11:22:15.368Z,1011.94
2017-04-12T11:23:24.972Z,1011.92
2017-04-12T11:24:34.276Z,1011.9
2017-04-12T11:25:44.492Z,1011.9
2017-04-12T11:26:54.536Z,1011.87
2017-04-12T11:28:04.198Z,1011.84
2017-04-12T11:29:13.495Z,1011.76
2017-04-12T11:30:23.403Z,1011.75
2017-04-12T11:31:33.300Z,1011.8
2017-04-12T11:32:42.834Z,1011.75
2017-04-12T11:33:52.755Z,1011.73
2017-04-12T11:35:02.664Z,1011.65
2017-04-12T11:36:12.910Z,1011.7
2017-04-12T11:37:22.519Z,1011.65
2017-04-12T11:38:32.775Z,1011.58
2017-04-12T11:39:42.376Z,1011.56
2017-04-12T11:40:52.019Z,1011.64
2017-04-12T11:42:01.314Z,1011.56
2017-04-12T11:43:11.236Z,1011.58
2017-04-12T11:44:20.934Z,1011.57
2017-04-12T11:45:30.834Z,1011.5
2017-04-12T11:46:40.120Z,1011.55
2017-04-12T11:47:49.427Z,1011.54
2017-04-12T11:48:59.050Z,1011.51
2017-04-12T11:50:09.747Z,1011.52
2017-04-12T11:51:19.354Z,1011.5
2017-04-12T11:52:28.393Z,1011.47
2017-04-12T11:53:37.993Z,1011.46
2017-04-12T11:54:47.911Z,1011.46
2017-04-12T11:55:57.889Z,1011.43
2017-04-12T11:57:07.919Z,1011.45
2017-04-12T11:58:17.548Z,1011.44
2017-04-12T11:59:27.484Z,1011.41
2017-04-12T12:00:37.106Z,1011.41
2017-04-12T12:01:46.521Z,1011.42
2017-04-12T12:02:56.172Z,1011.4
2017-04-12T12:04:06.095Z,1011.41
2017-04-12T12:05:16.052Z,1011.43
2017-04-12T12:06:25.688Z,1011.37
2017-04-12T12:07:35.385Z,1011.36
2017-04-12T12:08:45.619Z,1011.29
2017-04-12T12:09:55.547Z,1011.31
2017-04-12T12:11:05.467Z,1011.28
2017-04-12T12:12:15.709Z,1011.28
2017-04-12T12:13:25.445Z,1011.2
2017-04-12T12:14:35.386Z,1011.25
2017-04-12T12:15:45.058Z,1011.29
2017-04-12T12:16:55.021Z,1011.26
2017-04-12T12:18:04.962Z,1011.2
2017-04-12T12:19:14.608Z,1011.21
2017-04-12T12:20:25.326Z,1011.17
2017-04-12T12:21:35.375Z,1011.19
2017-04-12T12:22:45.003Z,1011.13
2017-04-12T12:23:54.953Z,1011.15
2017-04-12T12:25:04.980Z,1011.12
2017-04-12T12:26:15.215Z,1011.15
2017-04-12T12:27:24.819Z,1011.17
2017-04-12T12:28:34.434Z,1011.13
2017-04-12T12:29:44.658Z,1011.15
2017-04-12T12:30:55.224Z,1011.13
2017-04-12T12:32:05.143Z,1011.2
2017-04-12T12:33:14.793Z,1011.19
2017-04-12T12:34:25.005Z,1011.16
2017-04-12T12:35:35.218Z,1011.2
2017-04-12T12:36:45.081Z,1011.11
2017-04-12T12:37:55.017Z,1011.11
2017-04-12T12:39:05.230Z,1011.08
2017-04-12T12:40:15.164Z,1011.06
2017-04-12T12:41:25.314Z,1011.05
2017-04-12T12:42:35.067Z,1011.04
2017-04-12T12:43:44.980Z,1011.04
2017-04-12T12:44:55.201Z,1011
2017-04-12T12:46:05.115Z,1011.01
2017-04-12T12:47:15.029Z,1010.98
2017-04-12T12:48:25.592Z,1010.97
2017-04-12T12:49:35.191Z,1010.99
2017-04-12T12:50:45.093Z,1010.97
2017-04-12T12:51:54.998Z,1010.98
2017-04-12T12:53:04.606Z,1010.99
2017-04-12T12:54:14.771Z,1010.92
2017-04-12T12:55:24.682Z,1010.93
2017-04-12T12:56:34.634Z,1010.92
2017-04-12T12:57:44.564Z,1010.89
2017-04-12T12:58:54.822Z,1010.85
2017-04-12T13:00:05.834Z,1010.79
2017-04-12T13:01:15.128Z,1010.76
2017-04-12T13:02:25.351Z,1010.74
2017-04-12T13:03:35.267Z,1010.76
2017-04-12T13:04:44.563Z,1010.65
2017-04-12T13:05:54.585Z,1010.68
2017-04-12T13:07:03.902Z,1010.65
2017-04-12T13:08:14.119Z,1010.61
2017-04-12T13:09:24.041Z,1010.65
2017-04-12T13:10:33.649Z,1010.57
2017-04-12T13:11:43.296Z,1010.55
2017-04-12T13:12:52.894Z,1010.54
2017-04-12T13:14:03.109Z,1010.54
2017-04-12T13:15:13.353Z,1010.55
2017-04-12T13:16:23.570Z,1010.55
2017-04-12T13:17:33.828Z,1010.53
2017-04-12T13:18:43.749Z,1010.55
2017-04-12T13:19:53.354Z,1010.52
2017-04-12T13:21:03.320Z,1010.54
2017-04-12T13:22:13.223Z,1010.52
2017-04-12T13:23:23.542Z,1010.51
2017-04-12T13:24:33.761Z,1010.54
2017-04-12T13:25:43.696Z,1010.48
2017-04-12T13:26:53.622Z,1010.49
2017-04-12T13:28:03.219Z,1010.47
2017-04-12T13:29:13.123Z,1010.41
2017-04-12T13:30:22.714Z,1010.36
2017-04-12T13:31:32.627Z,1010.39
2017-04-12T13:32:42.533Z,1010.36
2017-04-12T13:33:53.505Z,1010.36
2017-04-12T13:35:04.471Z,1010.38
2017-04-12T13:36:14.701Z,1010.33
2017-04-12T13:37:24.348Z,1010.33
2017-04-12T13:38:34.255Z,1010.31
2017-04-12T13:39:44.212Z,1010.32
2017-04-12T13:40:53.969Z,1010.31
2017-04-12T13:42:04.175Z,1010.31
2017-04-12T13:43:13.779Z,1010.35
2017-04-12T13:44:23.706Z,1010.32
2017-04-12T13:45:33.619Z,1010.3
2017-04-12T13:46:44.136Z,1010.27
2017-04-12T13:47:54.363Z,1010.28
2017-04-12T13:49:04.589Z,1010.23
2017-04-12T13:50:14.189Z,1010.24
2017-04-12T13:51:24.092Z,1010.27
2017-04-12T13:52:34.479Z,1010.21
2017-04-12T13:53:44.206Z,1010.29
2017-04-12T13:54:54.123Z,1010.29
2017-04-12T13:56:03.725Z,1010.19
2017-04-12T13:57:13.641Z,1010.15
2017-04-12T13:58:24.274Z,1010.16
2017-04-12T13:59:33.870Z,1010.1
2017-04-12T14:00:44.089Z,1010.11
2017-04-12T14:01:53.078Z,1010.12
2017-04-12T14:03:03.289Z,1010.17
2017-04-12T14:04:13.358Z,1010.14
2017-04-12T14:05:23.284Z,1010.21
2017-04-12T14:06:33.205Z,1010.21
2017-04-12T14:07:42.808Z,1010.24
2017-04-12T14:08:53.035Z,1010.22